Impacts METAR Board INFO
IDs:

KSTL - St Louis/Lambert Int, MO, US

Updated at: 0427 UTC 15 Dec 2017
Potential Impact None Slight Moderate High
Time14/16Z 14/17Z 14/18Z 14/19Z 14/20Z 14/21Z 14/22Z 14/23Z 15/00Z 15/01Z 15/02Z 15/03Z 15/04Z
VIS10 10 10 10 10 10 10 10 10 10 10 10
CIG28 30 32 32 32 31 30 31 30 35 30 29
CoverOVCOVCOVCOVCOVCOVCOVCOVCOVCOVCOVCOVC
FltCatMVFRMVFRVFRVFRVFRVFRMVFRVFRMVFRVFRMVFRMVFR
WX------------------------
WDir3010032010310350320320320290310
WSpd10 7 3 5 5 6 6 6 4 5 4 8
WGst-- -- -- -- -- -- -- -- -- -- -- --
Raw hourly METARs
KSTL 141551Z 03010KT 10SM OVC028 M01/M07 A3010 RMK AO2 SLP200 T10111072
KSTL 141659Z 01007KT 10SM OVC030 00/M08 A3010 RMK AO2 T00001078
KSTL 141751Z VRB03KT 10SM OVC032 00/M08 A3010 RMK AO2 SLP202 T00001078 10000 21017 51006
KSTL 141851Z 32005KT 10SM OVC032 00/M07 A3008 RMK AO2 SLP195 T00001072
KSTL 141951Z 01005KT 10SM OVC032 00/M07 A3007 RMK AO2 SLP192 T00001072
KSTL 142051Z 31006KT 10SM OVC031 00/M07 A3008 RMK AO2 SLP197 T00001067 55006
KSTL 142151Z 35006KT 10SM OVC030 00/M07 A3010 RMK AO2 SLP202 T00001067
KSTL 142251Z 32006KT 10SM BKN031 OVC110 M01/M07 A3009 RMK AO2 SLP202 T10061072
KSTL 142351Z 32004KT 10SM OVC030 M01/M07 A3012 RMK AO2 SLP210 T10061067 10000 21006 53011

KSTL 150151Z 32005KT 10SM OVC035 M01/M07 A3012 RMK AO2 SLP212 T10061067
KSTL 150251Z 29004KT 10SM OVC030 M01/M07 A3013 RMK AO2 SLP216 T10061067 53006
KSTL 150351Z 31008KT 10SM OVC029 M01/M07 A3014 RMK AO2 SLP218 T10111067